Terminal Aerodrome Forecast
Issued by NWS Louisville, KY

Home | Current Version | Previous Version | Text Only | Print | Product List | Glossary On
Versions: 1 2 3 4 5 6 7 8 9 10 11 12 13 14 15 16 17 18 19
971
FTUS43 KLMK 051125
TAFBWG
TAF
KBWG 051125Z 0512/0612 05006KT P6SM OVC015
     FM051800 09006KT P6SM OVC200
     FM060200 09005KT P6SM -SHRA BKN045
     FM060500 07005KT 2SM -RA BR OVC007=

USA.gov is the U.S. government's official web portal to all federal, state and local government web resources and services.